sensor_id;sensor_type;location;lat;lon;timestamp;P1;durP1;ratioP1;P2;durP2;ratioP2
44276;SDS011;29973;43.742;1.236;2023-02-18T00:01:20;54.08;;;25.30;;
44276;SDS011;29973;43.742;1.236;2023-02-18T00:03:47;69.93;;;30.92;;
44276;SDS011;29973;43.742;1.236;2023-02-18T00:06:15;84.47;;;37.80;;
44276;SDS011;29973;43.742;1.236;2023-02-18T00:08:43;52.45;;;26.08;;
44276;SDS011;29973;43.742;1.236;2023-02-18T00:11:10;43.95;;;22.60;;
44276;SDS011;29973;43.742;1.236;2023-02-18T00:13:37;41.70;;;21.02;;
44276;SDS011;29973;43.742;1.236;2023-02-18T00:16:04;42.90;;;19.95;;
44276;SDS011;29973;43.742;1.236;2023-02-18T00:18:31;50.58;;;23.10;;
44276;SDS011;29973;43.742;1.236;2023-02-18T00:20:57;58.53;;;30.30;;
44276;SDS011;29973;43.742;1.236;2023-02-18T00:23:23;59.50;;;29.63;;
44276;SDS011;29973;43.742;1.236;2023-02-18T00:25:57;48.60;;;22.58;;
44276;SDS011;29973;43.742;1.236;2023-02-18T00:28:26;35.88;;;17.92;;
44276;SDS011;29973;43.742;1.236;2023-02-18T00:30:52;34.30;;;18.00;;
44276;SDS011;29973;43.742;1.236;2023-02-18T00:33:18;34.83;;;16.45;;
44276;SDS011;29973;43.742;1.236;2023-02-18T00:35:44;40.70;;;20.00;;
44276;SDS011;29973;43.742;1.236;2023-02-18T00:38:09;40.28;;;19.08;;
44276;SDS011;29973;43.742;1.236;2023-02-18T00:40:39;34.63;;;18.10;;
44276;SDS011;29973;43.742;1.236;2023-02-18T00:43:06;50.87;;;24.00;;
44276;SDS011;29973;43.742;1.236;2023-02-18T00:45:32;49.20;;;24.23;;
44276;SDS011;29973;43.742;1.236;2023-02-18T00:47:58;44.70;;;24.83;;
44276;SDS011;29973;43.742;1.236;2023-02-18T00:50:23;50.55;;;24.45;;
44276;SDS011;29973;43.742;1.236;2023-02-18T00:52:49;55.60;;;24.58;;
44276;SDS011;29973;43.742;1.236;2023-02-18T00:55:15;50.42;;;24.73;;
44276;SDS011;29973;43.742;1.236;2023-02-18T00:57:44;38.78;;;20.42;;
44276;SDS011;29973;43.742;1.236;2023-02-18T01:00:09;44.90;;;22.83;;
44276;SDS011;29973;43.742;1.236;2023-02-18T01:02:36;63.50;;;28.05;;
44276;SDS011;29973;43.742;1.236;2023-02-18T01:05:01;49.33;;;24.48;;
44276;SDS011;29973;43.742;1.236;2023-02-18T01:07:27;48.28;;;23.42;;
44276;SDS011;29973;43.742;1.236;2023-02-18T01:09:53;59.85;;;26.02;;
44276;SDS011;29973;43.742;1.236;2023-02-18T01:12:19;54.90;;;25.60;;
44276;SDS011;29973;43.742;1.236;2023-02-18T01:14:44;54.00;;;22.95;;
44276;SDS011;29973;43.742;1.236;2023-02-18T01:17:13;45.22;;;26.15;;
44276;SDS011;29973;43.742;1.236;2023-02-18T01:19:38;55.60;;;26.67;;
44276;SDS011;29973;43.742;1.236;2023-02-18T01:22:04;51.92;;;27.83;;
44276;SDS011;29973;43.742;1.236;2023-02-18T01:24:31;58.15;;;27.52;;
44276;SDS011;29973;43.742;1.236;2023-02-18T01:26:57;52.67;;;27.33;;
44276;SDS011;29973;43.742;1.236;2023-02-18T01:29:22;54.40;;;26.30;;
44276;SDS011;29973;43.742;1.236;2023-02-18T01:31:48;51.45;;;25.58;;
44276;SDS011;29973;43.742;1.236;2023-02-18T01:34:14;56.90;;;27.15;;
44276;SDS011;29973;43.742;1.236;2023-02-18T01:36:40;52.30;;;27.20;;
44276;SDS011;29973;43.742;1.236;2023-02-18T01:39:06;58.50;;;26.73;;
44276;SDS011;29973;43.742;1.236;2023-02-18T01:41:32;51.25;;;25.48;;
44276;SDS011;29973;43.742;1.236;2023-02-18T01:44:14;57.65;;;25.38;;
44276;SDS011;29973;43.742;1.236;2023-02-18T01:46:46;45.67;;;24.33;;
44276;SDS011;29973;43.742;1.236;2023-02-18T01:49:15;43.45;;;24.25;;
44276;SDS011;29973;43.742;1.236;2023-02-18T01:51:48;56.85;;;27.88;;
44276;SDS011;29973;43.742;1.236;2023-02-18T01:56:50;57.30;;;26.83;;
44276;SDS011;29973;43.742;1.236;2023-02-18T01:59:25;55.78;;;25.92;;
44276;SDS011;29973;43.742;1.236;2023-02-18T02:01:55;52.17;;;23.33;;
44276;SDS011;29973;43.742;1.236;2023-02-18T02:04:22;46.20;;;24.10;;
44276;SDS011;29973;43.742;1.236;2023-02-18T02:06:48;45.03;;;24.25;;
44276;SDS011;29973;43.742;1.236;2023-02-18T02:09:17;51.97;;;25.65;;
44276;SDS011;29973;43.742;1.236;2023-02-18T02:14:40;50.30;;;23.80;;
44276;SDS011;29973;43.742;1.236;2023-02-18T02:23:03;43.35;;;23.08;;
44276;SDS011;29973;43.742;1.236;2023-02-18T02:29:10;49.15;;;22.38;;
44276;SDS011;29973;43.742;1.236;2023-02-18T02:34:33;43.58;;;21.85;;
44276;SDS011;29973;43.742;1.236;2023-02-18T02:37:23;47.53;;;23.30;;
44276;SDS011;29973;43.742;1.236;2023-02-18T02:54:11;61.65;;;29.40;;
44276;SDS011;29973;43.742;1.236;2023-02-18T02:56:40;77.22;;;33.05;;
44276;SDS011;29973;43.742;1.236;2023-02-18T02:59:08;72.78;;;31.92;;
44276;SDS011;29973;43.742;1.236;2023-02-18T03:10:02;57.08;;;27.42;;
44276;SDS011;29973;43.742;1.236;2023-02-18T03:12:48;53.40;;;26.20;;
44276;SDS011;29973;43.742;1.236;2023-02-18T03:20:29;64.22;;;30.27;;
44276;SDS011;29973;43.742;1.236;2023-02-18T03:23:00;53.92;;;27.17;;
44276;SDS011;29973;43.742;1.236;2023-02-18T03:25:31;61.50;;;27.25;;
44276;SDS011;29973;43.742;1.236;2023-02-18T03:28:00;53.05;;;26.08;;
44276;SDS011;29973;43.742;1.236;2023-02-18T03:30:41;58.33;;;27.42;;
44276;SDS011;29973;43.742;1.236;2023-02-18T03:33:22;60.47;;;25.83;;
44276;SDS011;29973;43.742;1.236;2023-02-18T03:35:54;71.90;;;32.95;;
44276;SDS011;29973;43.742;1.236;2023-02-18T03:38:41;67.57;;;29.25;;
44276;SDS011;29973;43.742;1.236;2023-02-18T03:41:13;56.95;;;24.45;;
44276;SDS011;29973;43.742;1.236;2023-02-18T03:43:39;54.50;;;24.92;;
44276;SDS011;29973;43.742;1.236;2023-02-18T03:46:12;48.67;;;24.08;;
44276;SDS011;29973;43.742;1.236;2023-02-18T03:48:38;51.55;;;23.25;;
44276;SDS011;29973;43.742;1.236;2023-02-18T03:51:04;56.95;;;22.80;;
44276;SDS011;29973;43.742;1.236;2023-02-18T03:53:30;45.97;;;22.48;;
44276;SDS011;29973;43.742;1.236;2023-02-18T03:55:55;54.05;;;23.10;;
44276;SDS011;29973;43.742;1.236;2023-02-18T03:58:21;45.55;;;22.95;;
44276;SDS011;29973;43.742;1.236;2023-02-18T04:00:47;53.78;;;23.25;;
44276;SDS011;29973;43.742;1.236;2023-02-18T04:03:12;47.60;;;21.85;;
44276;SDS011;29973;43.742;1.236;2023-02-18T04:05:38;46.90;;;21.17;;
44276;SDS011;29973;43.742;1.236;2023-02-18T04:08:04;58.83;;;25.17;;
44276;SDS011;29973;43.742;1.236;2023-02-18T04:10:30;59.70;;;25.85;;
44276;SDS011;29973;43.742;1.236;2023-02-18T04:12:55;47.13;;;22.73;;
44276;SDS011;29973;43.742;1.236;2023-02-18T04:15:21;44.95;;;22.25;;
44276;SDS011;29973;43.742;1.236;2023-02-18T04:17:47;53.70;;;22.13;;
44276;SDS011;29973;43.742;1.236;2023-02-18T04:20:12;48.17;;;22.90;;
44276;SDS011;29973;43.742;1.236;2023-02-18T04:22:38;47.03;;;21.70;;
44276;SDS011;29973;43.742;1.236;2023-02-18T04:25:04;49.42;;;23.33;;
44276;SDS011;29973;43.742;1.236;2023-02-18T04:27:30;54.15;;;23.70;;
44276;SDS011;29973;43.742;1.236;2023-02-18T04:29:56;43.85;;;21.83;;
44276;SDS011;29973;43.742;1.236;2023-02-18T04:32:21;53.60;;;21.02;;
44276;SDS011;29973;43.742;1.236;2023-02-18T04:34:47;50.67;;;22.75;;
44276;SDS011;29973;43.742;1.236;2023-02-18T04:37:13;45.03;;;21.88;;
44276;SDS011;29973;43.742;1.236;2023-02-18T04:39:39;53.55;;;23.52;;
44276;SDS011;29973;43.742;1.236;2023-02-18T04:42:04;51.17;;;22.77;;
44276;SDS011;29973;43.742;1.236;2023-02-18T04:44:33;43.38;;;21.60;;
44276;SDS011;29973;43.742;1.236;2023-02-18T04:47:00;50.65;;;24.92;;
44276;SDS011;29973;43.742;1.236;2023-02-18T04:49:26;43.35;;;22.50;;
44276;SDS011;29973;43.742;1.236;2023-02-18T04:51:52;45.72;;;23.30;;
44276;SDS011;29973;43.742;1.236;2023-02-18T04:54:18;54.67;;;24.25;;
44276;SDS011;29973;43.742;1.236;2023-02-18T04:56:44;52.83;;;25.35;;
44276;SDS011;29973;43.742;1.236;2023-02-18T04:59:09;43.78;;;21.55;;
44276;SDS011;29973;43.742;1.236;2023-02-18T05:01:35;50.05;;;23.38;;
44276;SDS011;29973;43.742;1.236;2023-02-18T05:04:01;48.53;;;23.20;;
44276;SDS011;29973;43.742;1.236;2023-02-18T05:06:27;47.85;;;21.92;;
44276;SDS011;29973;43.742;1.236;2023-02-18T05:08:53;52.90;;;24.38;;
44276;SDS011;29973;43.742;1.236;2023-02-18T05:11:19;54.80;;;25.08;;
44276;SDS011;29973;43.742;1.236;2023-02-18T05:13:45;67.03;;;26.73;;
44276;SDS011;29973;43.742;1.236;2023-02-18T05:16:10;63.05;;;30.17;;
44276;SDS011;29973;43.742;1.236;2023-02-18T05:18:36;53.03;;;24.67;;
44276;SDS011;29973;43.742;1.236;2023-02-18T05:21:02;57.63;;;27.00;;
44276;SDS011;29973;43.742;1.236;2023-02-18T05:23:27;60.92;;;27.52;;
44276;SDS011;29973;43.742;1.236;2023-02-18T05:25:53;65.30;;;28.08;;
44276;SDS011;29973;43.742;1.236;2023-02-18T05:28:19;97.47;;;35.10;;
44276;SDS011;29973;43.742;1.236;2023-02-18T05:30:45;58.70;;;26.88;;
44276;SDS011;29973;43.742;1.236;2023-02-18T05:33:11;60.13;;;27.08;;
44276;SDS011;29973;43.742;1.236;2023-02-18T05:35:37;58.20;;;26.35;;
44276;SDS011;29973;43.742;1.236;2023-02-18T05:38:03;57.75;;;27.48;;
44276;SDS011;29973;43.742;1.236;2023-02-18T05:40:29;55.13;;;25.40;;
44276;SDS011;29973;43.742;1.236;2023-02-18T05:42:55;58.70;;;26.30;;
44276;SDS011;29973;43.742;1.236;2023-02-18T05:45:21;66.75;;;26.77;;
44276;SDS011;29973;43.742;1.236;2023-02-18T05:47:46;56.00;;;24.88;;
44276;SDS011;29973;43.742;1.236;2023-02-18T05:50:12;70.53;;;27.75;;
44276;SDS011;29973;43.742;1.236;2023-02-18T05:52:38;59.30;;;25.33;;
44276;SDS011;29973;43.742;1.236;2023-02-18T05:55:04;56.80;;;25.30;;
44276;SDS011;29973;43.742;1.236;2023-02-18T05:57:30;56.17;;;26.25;;
44276;SDS011;29973;43.742;1.236;2023-02-18T05:59:56;55.72;;;24.27;;
44276;SDS011;29973;43.742;1.236;2023-02-18T06:02:21;54.00;;;24.90;;
44276;SDS011;29973;43.742;1.236;2023-02-18T06:04:47;60.90;;;26.55;;
44276;SDS011;29973;43.742;1.236;2023-02-18T06:07:13;67.22;;;27.92;;
44276;SDS011;29973;43.742;1.236;2023-02-18T06:09:39;64.90;;;25.95;;
44276;SDS011;29973;43.742;1.236;2023-02-18T06:12:05;59.25;;;26.52;;
44276;SDS011;29973;43.742;1.236;2023-02-18T06:14:31;64.78;;;30.40;;
44276;SDS011;29973;43.742;1.236;2023-02-18T06:16:57;61.70;;;27.00;;
44276;SDS011;29973;43.742;1.236;2023-02-18T06:19:23;66.63;;;28.98;;
44276;SDS011;29973;43.742;1.236;2023-02-18T06:21:48;68.97;;;27.08;;
44276;SDS011;29973;43.742;1.236;2023-02-18T06:24:14;67.15;;;25.73;;
44276;SDS011;29973;43.742;1.236;2023-02-18T06:26:40;63.22;;;26.40;;
44276;SDS011;29973;43.742;1.236;2023-02-18T06:29:06;54.65;;;24.75;;
44276;SDS011;29973;43.742;1.236;2023-02-18T06:31:31;61.28;;;27.40;;
44276;SDS011;29973;43.742;1.236;2023-02-18T06:33:57;60.55;;;26.92;;
44276;SDS011;29973;43.742;1.236;2023-02-18T06:36:23;61.70;;;26.30;;
44276;SDS011;29973;43.742;1.236;2023-02-18T06:38:48;66.40;;;31.23;;
44276;SDS011;29973;43.742;1.236;2023-02-18T06:41:14;80.47;;;31.88;;
44276;SDS011;29973;43.742;1.236;2023-02-18T06:43:40;72.60;;;32.95;;
44276;SDS011;29973;43.742;1.236;2023-02-18T06:46:06;68.63;;;31.15;;
44276;SDS011;29973;43.742;1.236;2023-02-18T06:48:32;67.32;;;29.48;;
44276;SDS011;29973;43.742;1.236;2023-02-18T06:50:58;51.05;;;23.70;;
44276;SDS011;29973;43.742;1.236;2023-02-18T06:53:24;60.55;;;25.55;;
44276;SDS011;29973;43.742;1.236;2023-02-18T06:55:50;56.88;;;24.70;;
44276;SDS011;29973;43.742;1.236;2023-02-18T07:00:51;51.75;;;23.80;;
44276;SDS011;29973;43.742;1.236;2023-02-18T07:03:17;51.97;;;24.02;;
44276;SDS011;29973;43.742;1.236;2023-02-18T07:05:43;75.45;;;27.58;;
44276;SDS011;29973;43.742;1.236;2023-02-18T07:08:11;53.67;;;26.52;;
44276;SDS011;29973;43.742;1.236;2023-02-18T07:10:37;56.78;;;27.42;;
44276;SDS011;29973;43.742;1.236;2023-02-18T07:13:04;49.38;;;24.60;;
44276;SDS011;29973;43.742;1.236;2023-02-18T07:15:30;53.22;;;25.17;;
44276;SDS011;29973;43.742;1.236;2023-02-18T07:17:56;46.22;;;23.48;;
44276;SDS011;29973;43.742;1.236;2023-02-18T07:20:22;50.70;;;23.55;;
44276;SDS011;29973;43.742;1.236;2023-02-18T07:22:49;54.85;;;24.20;;
44276;SDS011;29973;43.742;1.236;2023-02-18T07:25:16;54.47;;;24.63;;
44276;SDS011;29973;43.742;1.236;2023-02-18T07:27:42;55.53;;;25.25;;
44276;SDS011;29973;43.742;1.236;2023-02-18T07:30:08;62.50;;;25.25;;
44276;SDS011;29973;43.742;1.236;2023-02-18T07:32:35;54.38;;;26.50;;
44276;SDS011;29973;43.742;1.236;2023-02-18T07:35:01;57.95;;;27.90;;
44276;SDS011;29973;43.742;1.236;2023-02-18T07:37:29;57.42;;;29.63;;
44276;SDS011;29973;43.742;1.236;2023-02-18T07:39:54;55.20;;;27.13;;
44276;SDS011;29973;43.742;1.236;2023-02-18T07:42:20;73.45;;;36.65;;
44276;SDS011;29973;43.742;1.236;2023-02-18T07:44:46;56.05;;;30.10;;
44276;SDS011;29973;43.742;1.236;2023-02-18T07:47:13;53.67;;;27.15;;
44276;SDS011;29973;43.742;1.236;2023-02-18T07:49:47;68.93;;;33.55;;
44276;SDS011;29973;43.742;1.236;2023-02-18T07:52:14;57.40;;;28.67;;
44276;SDS011;29973;43.742;1.236;2023-02-18T07:54:40;63.42;;;30.55;;
44276;SDS011;29973;43.742;1.236;2023-02-18T07:57:06;76.38;;;32.65;;
44276;SDS011;29973;43.742;1.236;2023-02-18T07:59:35;70.75;;;32.38;;
44276;SDS011;29973;43.742;1.236;2023-02-18T08:05:16;58.53;;;27.40;;
44276;SDS011;29973;43.742;1.236;2023-02-18T08:07:41;68.95;;;29.77;;
44276;SDS011;29973;43.742;1.236;2023-02-18T08:10:07;56.72;;;29.60;;
44276;SDS011;29973;43.742;1.236;2023-02-18T08:12:33;61.97;;;30.20;;
44276;SDS011;29973;43.742;1.236;2023-02-18T08:15:00;57.10;;;29.20;;
44276;SDS011;29973;43.742;1.236;2023-02-18T08:17:25;58.05;;;30.42;;
44276;SDS011;29973;43.742;1.236;2023-02-18T08:19:51;62.00;;;31.50;;
44276;SDS011;29973;43.742;1.236;2023-02-18T08:22:17;71.25;;;30.95;;
44276;SDS011;29973;43.742;1.236;2023-02-18T08:24:43;55.45;;;28.98;;
44276;SDS011;29973;43.742;1.236;2023-02-18T08:27:08;54.15;;;28.05;;
44276;SDS011;29973;43.742;1.236;2023-02-18T08:29:34;53.30;;;27.83;;
44276;SDS011;29973;43.742;1.236;2023-02-18T08:32:00;53.17;;;27.75;;
44276;SDS011;29973;43.742;1.236;2023-02-18T08:34:26;45.92;;;26.25;;
44276;SDS011;29973;43.742;1.236;2023-02-18T08:36:52;45.20;;;25.15;;
44276;SDS011;29973;43.742;1.236;2023-02-18T08:39:18;43.45;;;22.90;;
44276;SDS011;29973;43.742;1.236;2023-02-18T08:41:44;49.28;;;24.63;;
44276;SDS011;29973;43.742;1.236;2023-02-18T08:44:13;47.88;;;24.35;;
44276;SDS011;29973;43.742;1.236;2023-02-18T08:46:39;46.30;;;24.50;;
44276;SDS011;29973;43.742;1.236;2023-02-18T08:49:08;43.58;;;23.30;;
44276;SDS011;29973;43.742;1.236;2023-02-18T08:51:34;45.55;;;23.95;;
44276;SDS011;29973;43.742;1.236;2023-02-18T08:54:00;50.22;;;22.15;;
44276;SDS011;29973;43.742;1.236;2023-02-18T08:56:26;48.67;;;23.52;;
44276;SDS011;29973;43.742;1.236;2023-02-18T08:58:52;41.60;;;22.20;;
44276;SDS011;29973;43.742;1.236;2023-02-18T09:01:17;36.30;;;22.60;;
44276;SDS011;29973;43.742;1.236;2023-02-18T09:03:44;38.78;;;21.08;;
44276;SDS011;29973;43.742;1.236;2023-02-18T09:06:10;43.90;;;22.40;;
44276;SDS011;29973;43.742;1.236;2023-02-18T09:08:36;36.55;;;21.23;;
44276;SDS011;29973;43.742;1.236;2023-02-18T09:11:02;39.20;;;21.45;;
44276;SDS011;29973;43.742;1.236;2023-02-18T09:13:32;35.10;;;21.00;;
44276;SDS011;29973;43.742;1.236;2023-02-18T09:16:01;36.05;;;21.83;;
44276;SDS011;29973;43.742;1.236;2023-02-18T09:18:32;38.03;;;20.17;;
44276;SDS011;29973;43.742;1.236;2023-02-18T09:21:00;35.80;;;20.50;;
44276;SDS011;29973;43.742;1.236;2023-02-18T09:23:28;35.88;;;19.40;;
44276;SDS011;29973;43.742;1.236;2023-02-18T09:25:55;35.05;;;20.08;;
44276;SDS011;29973;43.742;1.236;2023-02-18T09:28:22;35.08;;;20.77;;
44276;SDS011;29973;43.742;1.236;2023-02-18T09:30:51;46.90;;;23.38;;
44276;SDS011;29973;43.742;1.236;2023-02-18T09:33:18;48.50;;;21.08;;
44276;SDS011;29973;43.742;1.236;2023-02-18T09:35:47;38.38;;;20.85;;
44276;SDS011;29973;43.742;1.236;2023-02-18T09:38:16;37.13;;;22.25;;
44276;SDS011;29973;43.742;1.236;2023-02-18T09:40:44;39.15;;;21.08;;
44276;SDS011;29973;43.742;1.236;2023-02-18T09:43:30;33.92;;;19.73;;
44276;SDS011;29973;43.742;1.236;2023-02-18T09:46:11;37.88;;;22.38;;
44276;SDS011;29973;43.742;1.236;2023-02-18T09:48:48;42.50;;;22.77;;
44276;SDS011;29973;43.742;1.236;2023-02-18T09:51:15;36.10;;;21.23;;
44276;SDS011;29973;43.742;1.236;2023-02-18T09:53:43;39.70;;;20.58;;
44276;SDS011;29973;43.742;1.236;2023-02-18T09:56:14;39.72;;;21.65;;
44276;SDS011;29973;43.742;1.236;2023-02-18T09:58:51;32.17;;;20.27;;
44276;SDS011;29973;43.742;1.236;2023-02-18T10:01:32;42.78;;;19.98;;
44276;SDS011;29973;43.742;1.236;2023-02-18T10:04:43;39.72;;;19.90;;
44276;SDS011;29973;43.742;1.236;2023-02-18T10:06:56;33.03;;;18.67;;
44276;SDS011;29973;43.742;1.236;2023-02-18T10:09:41;37.03;;;19.38;;
44276;SDS011;29973;43.742;1.236;2023-02-18T10:12:15;35.53;;;18.83;;
44276;SDS011;29973;43.742;1.236;2023-02-18T10:14:46;34.22;;;17.25;;
44276;SDS011;29973;43.742;1.236;2023-02-18T10:17:22;34.15;;;17.23;;
44276;SDS011;29973;43.742;1.236;2023-02-18T10:19:53;34.35;;;18.60;;
44276;SDS011;29973;43.742;1.236;2023-02-18T10:22:20;40.55;;;18.88;;
44276;SDS011;29973;43.742;1.236;2023-02-18T10:24:51;38.17;;;18.65;;
44276;SDS011;29973;43.742;1.236;2023-02-18T10:27:27;33.00;;;18.90;;
44276;SDS011;29973;43.742;1.236;2023-02-18T10:30:01;35.20;;;18.40;;
44276;SDS011;29973;43.742;1.236;2023-02-18T10:32:36;28.75;;;17.30;;
44276;SDS011;29973;43.742;1.236;2023-02-18T10:37:46;34.95;;;19.25;;
44276;SDS011;29973;43.742;1.236;2023-02-18T10:40:24;29.17;;;18.25;;
44276;SDS011;29973;43.742;1.236;2023-02-18T10:48:20;28.02;;;17.60;;
44276;SDS011;29973;43.742;1.236;2023-02-18T10:50:59;33.45;;;18.05;;
44276;SDS011;29973;43.742;1.236;2023-02-18T10:53:33;29.65;;;17.80;;
44276;SDS011;29973;43.742;1.236;2023-02-18T10:56:05;23.90;;;16.98;;
44276;SDS011;29973;43.742;1.236;2023-02-18T10:58:36;29.92;;;15.70;;
44276;SDS011;29973;43.742;1.236;2023-02-18T11:01:18;24.80;;;16.10;;
44276;SDS011;29973;43.742;1.236;2023-02-18T11:08:44;20.42;;;12.90;;
44276;SDS011;29973;43.742;1.236;2023-02-18T11:11:15;26.98;;;14.18;;
44276;SDS011;29973;43.742;1.236;2023-02-18T11:13:42;26.35;;;11.13;;
44276;SDS011;29973;43.742;1.236;2023-02-18T11:16:08;20.95;;;11.90;;
44276;SDS011;29973;43.742;1.236;2023-02-18T11:18:40;24.70;;;14.25;;
44276;SDS011;29973;43.742;1.236;2023-02-18T11:21:21;27.48;;;14.70;;
44276;SDS011;29973;43.742;1.236;2023-02-18T11:23:56;20.05;;;13.68;;
44276;SDS011;29973;43.742;1.236;2023-02-18T11:26:33;24.20;;;12.45;;
44276;SDS011;29973;43.742;1.236;2023-02-18T11:29:20;22.08;;;13.23;;
44276;SDS011;29973;43.742;1.236;2023-02-18T11:31:50;21.95;;;13.18;;
44276;SDS011;29973;43.742;1.236;2023-02-18T11:34:20;24.25;;;13.57;;
44276;SDS011;29973;43.742;1.236;2023-02-18T11:36:48;20.02;;;13.18;;
44276;SDS011;29973;43.742;1.236;2023-02-18T11:39:17;19.50;;;12.32;;
44276;SDS011;29973;43.742;1.236;2023-02-18T11:41:58;19.90;;;12.15;;
44276;SDS011;29973;43.742;1.236;2023-02-18T11:44:33;25.83;;;12.40;;
44276;SDS011;29973;43.742;1.236;2023-02-18T11:49:37;17.92;;;11.30;;
44276;SDS011;29973;43.742;1.236;2023-02-18T11:52:14;15.77;;;10.70;;
44276;SDS011;29973;43.742;1.236;2023-02-18T11:55:02;15.98;;;9.48;;
44276;SDS011;29973;43.742;1.236;2023-02-18T12:02:53;18.77;;;9.50;;
44276;SDS011;29973;43.742;1.236;2023-02-18T12:05:24;15.68;;;10.20;;
44276;SDS011;29973;43.742;1.236;2023-02-18T12:10:27;15.52;;;10.27;;
44276;SDS011;29973;43.742;1.236;2023-02-18T12:13:16;18.50;;;10.07;;
44276;SDS011;29973;43.742;1.236;2023-02-18T12:21:27;13.15;;;8.30;;
44276;SDS011;29973;43.742;1.236;2023-02-18T12:35:48;11.55;;;5.78;;
44276;SDS011;29973;43.742;1.236;2023-02-18T12:38:45;13.80;;;8.10;;
44276;SDS011;29973;43.742;1.236;2023-02-18T12:55:00;15.20;;;8.10;;
44276;SDS011;29973;43.742;1.236;2023-02-18T13:06:09;10.88;;;6.40;;
44276;SDS011;29973;43.742;1.236;2023-02-18T13:11:22;14.75;;;7.40;;
44276;SDS011;29973;43.742;1.236;2023-02-18T13:16:43;12.93;;;7.70;;
44276;SDS011;29973;43.742;1.236;2023-02-18T13:22:14;11.63;;;6.68;;
44276;SDS011;29973;43.742;1.236;2023-02-18T13:24:43;12.65;;;6.43;;
44276;SDS011;29973;43.742;1.236;2023-02-18T13:34:51;8.23;;;5.30;;
44276;SDS011;29973;43.742;1.236;2023-02-18T13:40:30;12.27;;;6.30;;
44276;SDS011;29973;43.742;1.236;2023-02-18T13:48:54;10.30;;;5.25;;
44276;SDS011;29973;43.742;1.236;2023-02-18T13:56:49;10.13;;;6.45;;
44276;SDS011;29973;43.742;1.236;2023-02-18T14:02:42;15.75;;;7.00;;
44276;SDS011;29973;43.742;1.236;2023-02-18T14:04:52;12.77;;;6.15;;
44276;SDS011;29973;43.742;1.236;2023-02-18T14:10:00;11.40;;;6.80;;
44276;SDS011;29973;43.742;1.236;2023-02-18T14:12:39;10.65;;;6.35;;
44276;SDS011;29973;43.742;1.236;2023-02-18T14:15:45;14.55;;;5.80;;
44276;SDS011;29973;43.742;1.236;2023-02-18T14:18:27;12.00;;;5.88;;
44276;SDS011;29973;43.742;1.236;2023-02-18T14:21:03;9.18;;;5.45;;
44276;SDS011;29973;43.742;1.236;2023-02-18T14:28:39;8.30;;;5.07;;
44276;SDS011;29973;43.742;1.236;2023-02-18T14:33:39;11.80;;;5.70;;
44276;SDS011;29973;43.742;1.236;2023-02-18T14:49:38;12.10;;;7.57;;
44276;SDS011;29973;43.742;1.236;2023-02-18T14:52:12;16.35;;;7.28;;
44276;SDS011;29973;43.742;1.236;2023-02-18T14:54:56;12.02;;;6.63;;
44276;SDS011;29973;43.742;1.236;2023-02-18T14:57:33;7.82;;;5.43;;
44276;SDS011;29973;43.742;1.236;2023-02-18T15:02:33;11.43;;;5.95;;
44276;SDS011;29973;43.742;1.236;2023-02-18T15:05:13;13.05;;;5.80;;
44276;SDS011;29973;43.742;1.236;2023-02-18T15:07:41;9.68;;;4.85;;
44276;SDS011;29973;43.742;1.236;2023-02-18T15:10:15;7.80;;;5.28;;
44276;SDS011;29973;43.742;1.236;2023-02-18T15:12:42;6.97;;;4.68;;
44276;SDS011;29973;43.742;1.236;2023-02-18T15:15:08;7.82;;;4.05;;
44276;SDS011;29973;43.742;1.236;2023-02-18T15:17:43;8.68;;;4.45;;
44276;SDS011;29973;43.742;1.236;2023-02-18T15:20:11;6.70;;;4.32;;
44276;SDS011;29973;43.742;1.236;2023-02-18T15:22:39;9.07;;;5.90;;
44276;SDS011;29973;43.742;1.236;2023-02-18T15:25:05;12.00;;;6.53;;
44276;SDS011;29973;43.742;1.236;2023-02-18T15:27:35;12.32;;;6.75;;
44276;SDS011;29973;43.742;1.236;2023-02-18T15:32:53;10.95;;;6.55;;
44276;SDS011;29973;43.742;1.236;2023-02-18T15:35:22;13.68;;;6.22;;
44276;SDS011;29973;43.742;1.236;2023-02-18T15:37:54;11.93;;;5.97;;
44276;SDS011;29973;43.742;1.236;2023-02-18T15:40:22;12.75;;;6.10;;
44276;SDS011;29973;43.742;1.236;2023-02-18T15:42:51;6.72;;;4.75;;
44276;SDS011;29973;43.742;1.236;2023-02-18T15:45:20;9.77;;;4.85;;
44276;SDS011;29973;43.742;1.236;2023-02-18T15:51:02;5.50;;;3.88;;
44276;SDS011;29973;43.742;1.236;2023-02-18T15:53:37;9.43;;;4.20;;
44276;SDS011;29973;43.742;1.236;2023-02-18T15:58:34;7.25;;;5.28;;
44276;SDS011;29973;43.742;1.236;2023-02-18T16:01:01;8.82;;;4.60;;
44276;SDS011;29973;43.742;1.236;2023-02-18T16:03:45;10.68;;;4.40;;
44276;SDS011;29973;43.742;1.236;2023-02-18T16:08:37;10.73;;;6.38;;
44276;SDS011;29973;43.742;1.236;2023-02-18T16:11:06;10.82;;;5.65;;
44276;SDS011;29973;43.742;1.236;2023-02-18T16:13:36;10.00;;;5.20;;
44276;SDS011;29973;43.742;1.236;2023-02-18T16:16:22;7.20;;;5.20;;
44276;SDS011;29973;43.742;1.236;2023-02-18T16:18:52;9.57;;;5.03;;
44276;SDS011;29973;43.742;1.236;2023-02-18T16:23:50;12.30;;;4.97;;
44276;SDS011;29973;43.742;1.236;2023-02-18T16:28:58;8.27;;;4.78;;
44276;SDS011;29973;43.742;1.236;2023-02-18T16:31:45;9.45;;;4.40;;
44276;SDS011;29973;43.742;1.236;2023-02-18T16:34:11;7.63;;;4.55;;
44276;SDS011;29973;43.742;1.236;2023-02-18T16:36:36;8.73;;;4.97;;
44276;SDS011;29973;43.742;1.236;2023-02-18T16:39:22;11.70;;;4.63;;
44276;SDS011;29973;43.742;1.236;2023-02-18T16:41:48;7.22;;;4.57;;
44276;SDS011;29973;43.742;1.236;2023-02-18T16:44:13;13.65;;;5.22;;
44276;SDS011;29973;43.742;1.236;2023-02-18T16:46:40;15.90;;;4.55;;
44276;SDS011;29973;43.742;1.236;2023-02-18T16:49:07;7.88;;;4.53;;
44276;SDS011;29973;43.742;1.236;2023-02-18T16:51:37;7.47;;;4.97;;
44276;SDS011;29973;43.742;1.236;2023-02-18T16:54:03;9.35;;;4.60;;
44276;SDS011;29973;43.742;1.236;2023-02-18T16:56:29;12.52;;;5.55;;
44276;SDS011;29973;43.742;1.236;2023-02-18T16:58:57;6.60;;;4.68;;
44276;SDS011;29973;43.742;1.236;2023-02-18T17:01:24;11.50;;;4.57;;
44276;SDS011;29973;43.742;1.236;2023-02-18T17:03:58;17.75;;;4.75;;
44276;SDS011;29973;43.742;1.236;2023-02-18T17:06:26;11.10;;;4.40;;
44276;SDS011;29973;43.742;1.236;2023-02-18T17:08:52;7.47;;;5.20;;
44276;SDS011;29973;43.742;1.236;2023-02-18T17:11:25;9.05;;;4.72;;
44276;SDS011;29973;43.742;1.236;2023-02-18T17:13:55;10.40;;;4.63;;
44276;SDS011;29973;43.742;1.236;2023-02-18T17:16:23;11.10;;;5.65;;
44276;SDS011;29973;43.742;1.236;2023-02-18T17:18:50;10.60;;;5.10;;
44276;SDS011;29973;43.742;1.236;2023-02-18T17:21:17;16.48;;;6.10;;
44276;SDS011;29973;43.742;1.236;2023-02-18T17:23:45;12.20;;;6.05;;
44276;SDS011;29973;43.742;1.236;2023-02-18T17:26:16;9.27;;;5.38;;
44276;SDS011;29973;43.742;1.236;2023-02-18T17:28:49;8.23;;;4.93;;
44276;SDS011;29973;43.742;1.236;2023-02-18T17:31:32;11.30;;;4.85;;
44276;SDS011;29973;43.742;1.236;2023-02-18T17:34:06;10.60;;;5.18;;
44276;SDS011;29973;43.742;1.236;2023-02-18T17:36:33;9.43;;;5.15;;
44276;SDS011;29973;43.742;1.236;2023-02-18T17:38:59;16.50;;;8.73;;
44276;SDS011;29973;43.742;1.236;2023-02-18T17:41:25;29.08;;;15.65;;
44276;SDS011;29973;43.742;1.236;2023-02-18T17:43:51;31.30;;;16.98;;
44276;SDS011;29973;43.742;1.236;2023-02-18T17:46:17;28.55;;;14.10;;
44276;SDS011;29973;43.742;1.236;2023-02-18T17:48:44;33.85;;;18.45;;